sensor_id;sensor_type;location;lat;lon;timestamp;temperature;humidity
59303;DHT22;45074;52.764;6.896;2022-07-12T00:00:44;15.40;99.90
59303;DHT22;45074;52.764;6.896;2022-07-12T00:03:10;15.60;99.90
59303;DHT22;45074;52.764;6.896;2022-07-12T00:05:36;15.30;99.90
59303;DHT22;45074;52.764;6.896;2022-07-12T00:08:03;15.30;99.90
59303;DHT22;45074;52.764;6.896;2022-07-12T00:10:28;14.00;99.90
59303;DHT22;45074;52.764;6.896;2022-07-12T00:12:54;15.10;99.90
59303;DHT22;45074;52.764;6.896;2022-07-12T00:15:21;13.80;99.90
59303;DHT22;45074;52.764;6.896;2022-07-12T00:17:46;15.40;99.90
59303;DHT22;45074;52.764;6.896;2022-07-12T00:20:12;16.00;99.90
59303;DHT22;45074;52.764;6.896;2022-07-12T00:22:38;14.80;99.90
59303;DHT22;45074;52.764;6.896;2022-07-12T00:25:04;14.50;99.90
59303;DHT22;45074;52.764;6.896;2022-07-12T00:27:29;14.80;99.90
59303;DHT22;45074;52.764;6.896;2022-07-12T00:29:55;14.80;99.90
59303;DHT22;45074;52.764;6.896;2022-07-12T00:32:21;15.00;99.90
59303;DHT22;45074;52.764;6.896;2022-07-12T00:34:47;14.90;99.90
59303;DHT22;45074;52.764;6.896;2022-07-12T00:37:12;14.40;99.90
59303;DHT22;45074;52.764;6.896;2022-07-12T00:39:38;15.10;99.90
59303;DHT22;45074;52.764;6.896;2022-07-12T00:42:04;14.90;99.90
59303;DHT22;45074;52.764;6.896;2022-07-12T00:44:30;14.60;99.90
59303;DHT22;45074;52.764;6.896;2022-07-12T00:47:02;14.50;99.90
59303;DHT22;45074;52.764;6.896;2022-07-12T00:49:29;14.60;99.90
59303;DHT22;45074;52.764;6.896;2022-07-12T00:51:55;14.40;99.90
59303;DHT22;45074;52.764;6.896;2022-07-12T00:54:21;14.50;99.90
59303;DHT22;45074;52.764;6.896;2022-07-12T00:56:47;14.40;99.90
59303;DHT22;45074;52.764;6.896;2022-07-12T00:59:13;16.00;99.90
59303;DHT22;45074;52.764;6.896;2022-07-12T01:01:39;13.90;99.90
59303;DHT22;45074;52.764;6.896;2022-07-12T01:04:07;14.60;99.90
59303;DHT22;45074;52.764;6.896;2022-07-12T01:08:59;14.30;99.90
59303;DHT22;45074;52.764;6.896;2022-07-12T01:11:25;15.80;99.90
59303;DHT22;45074;52.764;6.896;2022-07-12T01:13:54;12.80;99.90
59303;DHT22;45074;52.764;6.896;2022-07-12T01:16:21;14.50;99.90
59303;DHT22;45074;52.764;6.896;2022-07-12T01:18:47;15.20;99.90
59303;DHT22;45074;52.764;6.896;2022-07-12T01:21:18;15.50;99.90
59303;DHT22;45074;52.764;6.896;2022-07-12T01:23:45;14.30;99.90
59303;DHT22;45074;52.764;6.896;2022-07-12T01:26:11;12.40;99.90
59303;DHT22;45074;52.764;6.896;2022-07-12T01:28:37;13.30;99.90
59303;DHT22;45074;52.764;6.896;2022-07-12T01:31:04;14.20;99.90
59303;DHT22;45074;52.764;6.896;2022-07-12T01:33:30;14.30;99.90
59303;DHT22;45074;52.764;6.896;2022-07-12T01:35:56;14.70;99.90
59303;DHT22;45074;52.764;6.896;2022-07-12T01:38:22;15.20;99.90
59303;DHT22;45074;52.764;6.896;2022-07-12T01:40:48;13.50;99.90
59303;DHT22;45074;52.764;6.896;2022-07-12T01:43:14;14.20;99.90
59303;DHT22;45074;52.764;6.896;2022-07-12T01:45:40;13.80;99.90
59303;DHT22;45074;52.764;6.896;2022-07-12T01:48:06;15.40;99.90
59303;DHT22;45074;52.764;6.896;2022-07-12T01:53:00;14.20;99.90
59303;DHT22;45074;52.764;6.896;2022-07-12T01:55:26;13.80;99.90
59303;DHT22;45074;52.764;6.896;2022-07-12T01:57:52;14.80;99.90
59303;DHT22;45074;52.764;6.896;2022-07-12T02:00:18;15.20;99.90
59303;DHT22;45074;52.764;6.896;2022-07-12T02:05:13;13.40;99.90
59303;DHT22;45074;52.764;6.896;2022-07-12T02:07:39;13.80;99.90
59303;DHT22;45074;52.764;6.896;2022-07-12T02:10:06;14.20;99.90
59303;DHT22;45074;52.764;6.896;2022-07-12T02:12:33;15.00;99.90
59303;DHT22;45074;52.764;6.896;2022-07-12T02:14:59;14.80;99.90
59303;DHT22;45074;52.764;6.896;2022-07-12T02:17:25;14.00;99.90
59303;DHT22;45074;52.764;6.896;2022-07-12T02:19:51;13.90;99.90
59303;DHT22;45074;52.764;6.896;2022-07-12T02:22:17;13.60;99.90
59303;DHT22;45074;52.764;6.896;2022-07-12T02:24:43;13.70;99.90
59303;DHT22;45074;52.764;6.896;2022-07-12T02:27:08;13.50;99.90
59303;DHT22;45074;52.764;6.896;2022-07-12T02:29:34;14.00;99.90
59303;DHT22;45074;52.764;6.896;2022-07-12T02:32:01;13.60;99.90
59303;DHT22;45074;52.764;6.896;2022-07-12T02:34:27;13.30;99.90
59303;DHT22;45074;52.764;6.896;2022-07-12T02:36:53;15.00;99.90
59303;DHT22;45074;52.764;6.896;2022-07-12T02:39:19;13.70;99.90
59303;DHT22;45074;52.764;6.896;2022-07-12T02:41:44;13.30;99.90
59303;DHT22;45074;52.764;6.896;2022-07-12T02:44:10;12.90;99.90
59303;DHT22;45074;52.764;6.896;2022-07-12T02:46:36;13.60;99.90
59303;DHT22;45074;52.764;6.896;2022-07-12T02:49:01;13.60;99.90
59303;DHT22;45074;52.764;6.896;2022-07-12T02:51:27;13.20;99.90
59303;DHT22;45074;52.764;6.896;2022-07-12T02:53:53;13.30;99.90
59303;DHT22;45074;52.764;6.896;2022-07-12T02:56:18;15.70;99.90
59303;DHT22;45074;52.764;6.896;2022-07-12T02:58:44;13.50;99.90
59303;DHT22;45074;52.764;6.896;2022-07-12T03:01:10;13.10;99.90
59303;DHT22;45074;52.764;6.896;2022-07-12T03:03:37;11.10;99.90
59303;DHT22;45074;52.764;6.896;2022-07-12T03:06:02;13.70;99.90
59303;DHT22;45074;52.764;6.896;2022-07-12T03:08:28;12.00;99.90
59303;DHT22;45074;52.764;6.896;2022-07-12T03:10:54;12.90;99.90
59303;DHT22;45074;52.764;6.896;2022-07-12T03:13:19;14.50;99.90
59303;DHT22;45074;52.764;6.896;2022-07-12T03:15:45;13.10;99.90
59303;DHT22;45074;52.764;6.896;2022-07-12T03:18:11;13.30;99.90
59303;DHT22;45074;52.764;6.896;2022-07-12T03:20:37;11.90;99.90
59303;DHT22;45074;52.764;6.896;2022-07-12T03:23:02;13.40;99.90
59303;DHT22;45074;52.764;6.896;2022-07-12T03:25:28;13.00;99.90
59303;DHT22;45074;52.764;6.896;2022-07-12T03:27:54;13.00;99.90
59303;DHT22;45074;52.764;6.896;2022-07-12T03:30:19;11.20;99.90
59303;DHT22;45074;52.764;6.896;2022-07-12T03:32:45;13.10;99.90
59303;DHT22;45074;52.764;6.896;2022-07-12T03:35:11;13.20;99.90
59303;DHT22;45074;52.764;6.896;2022-07-12T03:37:47;11.10;99.90
59303;DHT22;45074;52.764;6.896;2022-07-12T03:40:14;12.40;99.90
59303;DHT22;45074;52.764;6.896;2022-07-12T03:42:41;12.90;99.90
59303;DHT22;45074;52.764;6.896;2022-07-12T03:45:07;13.30;99.90
59303;DHT22;45074;52.764;6.896;2022-07-12T03:47:33;12.60;99.90
59303;DHT22;45074;52.764;6.896;2022-07-12T03:50:04;12.90;99.90
59303;DHT22;45074;52.764;6.896;2022-07-12T03:52:31;12.90;99.90
59303;DHT22;45074;52.764;6.896;2022-07-12T03:54:57;13.10;99.90
59303;DHT22;45074;52.764;6.896;2022-07-12T03:57:23;13.10;99.90
59303;DHT22;45074;52.764;6.896;2022-07-12T03:59:49;12.20;99.90
59303;DHT22;45074;52.764;6.896;2022-07-12T04:02:15;12.90;99.90
59303;DHT22;45074;52.764;6.896;2022-07-12T04:04:41;13.50;99.90
59303;DHT22;45074;52.764;6.896;2022-07-12T04:09:34;12.90;99.90
59303;DHT22;45074;52.764;6.896;2022-07-12T04:11:59;11.70;99.90
59303;DHT22;45074;52.764;6.896;2022-07-12T04:14:25;13.20;99.90
59303;DHT22;45074;52.764;6.896;2022-07-12T04:16:51;12.80;99.90
59303;DHT22;45074;52.764;6.896;2022-07-12T04:19:17;13.00;99.90
59303;DHT22;45074;52.764;6.896;2022-07-12T04:21:42;13.00;99.90
59303;DHT22;45074;52.764;6.896;2022-07-12T04:24:08;13.20;99.90
59303;DHT22;45074;52.764;6.896;2022-07-12T04:28:59;13.10;99.90
59303;DHT22;45074;52.764;6.896;2022-07-12T04:31:25;12.60;99.90
59303;DHT22;45074;52.764;6.896;2022-07-12T04:33:51;13.10;99.90
59303;DHT22;45074;52.764;6.896;2022-07-12T04:36:17;14.10;99.90
59303;DHT22;45074;52.764;6.896;2022-07-12T04:38:43;15.10;99.90
59303;DHT22;45074;52.764;6.896;2022-07-12T04:41:09;13.50;99.90
59303;DHT22;45074;52.764;6.896;2022-07-12T04:43:34;13.20;99.90
59303;DHT22;45074;52.764;6.896;2022-07-12T04:46:10;12.10;99.90
59303;DHT22;45074;52.764;6.896;2022-07-12T04:48:35;12.20;99.90
59303;DHT22;45074;52.764;6.896;2022-07-12T04:51:02;14.80;99.90
59303;DHT22;45074;52.764;6.896;2022-07-12T04:53:28;13.80;99.90
59303;DHT22;45074;52.764;6.896;2022-07-12T04:55:55;13.40;99.90
59303;DHT22;45074;52.764;6.896;2022-07-12T04:58:21;13.30;99.90
59303;DHT22;45074;52.764;6.896;2022-07-12T05:00:47;13.30;99.90
59303;DHT22;45074;52.764;6.896;2022-07-12T05:05:39;14.00;99.90
59303;DHT22;45074;52.764;6.896;2022-07-12T05:08:04;13.80;99.90
59303;DHT22;45074;52.764;6.896;2022-07-12T05:10:30;13.50;99.90
59303;DHT22;45074;52.764;6.896;2022-07-12T05:12:56;13.40;99.90
59303;DHT22;45074;52.764;6.896;2022-07-12T05:15:21;14.10;99.90
59303;DHT22;45074;52.764;6.896;2022-07-12T05:20:13;13.90;99.90
59303;DHT22;45074;52.764;6.896;2022-07-12T05:25:07;15.10;99.90
59303;DHT22;45074;52.764;6.896;2022-07-12T05:27:34;14.50;99.90
59303;DHT22;45074;52.764;6.896;2022-07-12T05:30:00;13.70;99.90
59303;DHT22;45074;52.764;6.896;2022-07-12T05:39:44;14.40;99.90
59303;DHT22;45074;52.764;6.896;2022-07-12T05:42:10;13.30;99.90
59303;DHT22;45074;52.764;6.896;2022-07-12T05:44:36;14.00;99.90
59303;DHT22;45074;52.764;6.896;2022-07-12T05:47:02;14.40;99.90
59303;DHT22;45074;52.764;6.896;2022-07-12T05:51:54;14.30;99.90
59303;DHT22;45074;52.764;6.896;2022-07-12T05:54:38;15.20;99.90
59303;DHT22;45074;52.764;6.896;2022-07-12T05:57:04;17.00;99.90
59303;DHT22;45074;52.764;6.896;2022-07-12T05:59:29;17.50;99.90
59303;DHT22;45074;52.764;6.896;2022-07-12T06:01:56;15.00;99.90
59303;DHT22;45074;52.764;6.896;2022-07-12T06:04:22;16.60;99.90
59303;DHT22;45074;52.764;6.896;2022-07-12T06:09:14;16.30;99.90
59303;DHT22;45074;52.764;6.896;2022-07-12T06:11:39;17.50;99.90
59303;DHT22;45074;52.764;6.896;2022-07-12T06:14:05;16.70;99.90
59303;DHT22;45074;52.764;6.896;2022-07-12T06:16:31;16.90;99.90
59303;DHT22;45074;52.764;6.896;2022-07-12T06:18:56;16.90;99.90
59303;DHT22;45074;52.764;6.896;2022-07-12T06:21:22;17.50;99.90
59303;DHT22;45074;52.764;6.896;2022-07-12T06:26:13;17.80;99.90
59303;DHT22;45074;52.764;6.896;2022-07-12T06:28:39;17.20;99.90
59303;DHT22;45074;52.764;6.896;2022-07-12T06:31:06;16.90;99.90
59303;DHT22;45074;52.764;6.896;2022-07-12T06:35:58;18.80;99.90
59303;DHT22;45074;52.764;6.896;2022-07-12T06:38:23;15.90;99.90
59303;DHT22;45074;52.764;6.896;2022-07-12T06:40:49;17.60;99.90
59303;DHT22;45074;52.764;6.896;2022-07-12T06:45:41;17.50;99.90
59303;DHT22;45074;52.764;6.896;2022-07-12T06:48:06;16.10;99.90
59303;DHT22;45074;52.764;6.896;2022-07-12T06:50:32;16.80;99.90
59303;DHT22;45074;52.764;6.896;2022-07-12T06:55:25;18.10;99.90
59303;DHT22;45074;52.764;6.896;2022-07-12T07:00:17;17.90;99.90
59303;DHT22;45074;52.764;6.896;2022-07-12T07:02:43;18.70;99.90
59303;DHT22;45074;52.764;6.896;2022-07-12T07:10:03;18.20;99.90
59303;DHT22;45074;52.764;6.896;2022-07-12T07:14:54;18.50;99.90
59303;DHT22;45074;52.764;6.896;2022-07-12T07:22:13;19.10;99.90
59303;DHT22;45074;52.764;6.896;2022-07-12T07:24:39;18.60;99.90
59303;DHT22;45074;52.764;6.896;2022-07-12T07:27:05;18.30;99.90
59303;DHT22;45074;52.764;6.896;2022-07-12T07:29:31;17.10;99.90
59303;DHT22;45074;52.764;6.896;2022-07-12T12:45:23;30.30;56.60
59303;DHT22;45074;52.764;6.896;2022-07-12T12:47:53;29.80;54.60
59303;DHT22;45074;52.764;6.896;2022-07-12T12:50:36;30.40;48.50
59303;DHT22;45074;52.764;6.896;2022-07-12T12:55:35;30.00;47.80
59303;DHT22;45074;52.764;6.896;2022-07-12T12:58:01;31.20;55.10
59303;DHT22;45074;52.764;6.896;2022-07-12T13:00:28;30.70;52.90
59303;DHT22;45074;52.764;6.896;2022-07-12T13:02:56;30.20;51.60
59303;DHT22;45074;52.764;6.896;2022-07-12T13:05:25;31.90;52.30
59303;DHT22;45074;52.764;6.896;2022-07-12T13:07:51;30.60;50.60
59303;DHT22;45074;52.764;6.896;2022-07-12T13:10:17;31.00;50.50
59303;DHT22;45074;52.764;6.896;2022-07-12T13:12:43;30.60;49.40
59303;DHT22;45074;52.764;6.896;2022-07-12T13:15:10;32.80;51.80
59303;DHT22;45074;52.764;6.896;2022-07-12T13:17:36;32.00;44.70
59303;DHT22;45074;52.764;6.896;2022-07-12T13:20:04;32.50;49.20
59303;DHT22;45074;52.764;6.896;2022-07-12T13:22:29;32.30;48.70
59303;DHT22;45074;52.764;6.896;2022-07-12T13:24:55;32.70;48.70
59303;DHT22;45074;52.764;6.896;2022-07-12T13:27:21;32.40;50.00
59303;DHT22;45074;52.764;6.896;2022-07-12T13:29:47;31.80;48.20
59303;DHT22;45074;52.764;6.896;2022-07-12T13:32:12;33.20;49.10
59303;DHT22;45074;52.764;6.896;2022-07-12T13:34:38;31.80;47.50
59303;DHT22;45074;52.764;6.896;2022-07-12T13:37:04;30.80;47.00
59303;DHT22;45074;52.764;6.896;2022-07-12T13:39:30;31.20;42.90
59303;DHT22;45074;52.764;6.896;2022-07-12T13:42:14;33.10;49.40
59303;DHT22;45074;52.764;6.896;2022-07-12T13:44:42;31.10;41.30
59303;DHT22;45074;52.764;6.896;2022-07-12T13:47:08;33.30;47.90
59303;DHT22;45074;52.764;6.896;2022-07-12T13:49:33;31.50;46.70
59303;DHT22;45074;52.764;6.896;2022-07-12T13:54:27;31.10;45.60
59303;DHT22;45074;52.764;6.896;2022-07-12T13:56:54;30.60;46.30
59303;DHT22;45074;52.764;6.896;2022-07-12T13:59:19;31.90;48.00
59303;DHT22;45074;52.764;6.896;2022-07-12T14:01:45;30.90;47.90
59303;DHT22;45074;52.764;6.896;2022-07-12T14:04:11;30.30;47.70
59303;DHT22;45074;52.764;6.896;2022-07-12T14:06:37;30.30;48.90
59303;DHT22;45074;52.764;6.896;2022-07-12T14:09:02;28.70;42.40
59303;DHT22;45074;52.764;6.896;2022-07-12T14:11:28;30.00;48.80
59303;DHT22;45074;52.764;6.896;2022-07-12T14:13:54;29.40;46.10
59303;DHT22;45074;52.764;6.896;2022-07-12T14:16:19;30.00;51.50
59303;DHT22;45074;52.764;6.896;2022-07-12T14:18:46;28.40;50.20
59303;DHT22;45074;52.764;6.896;2022-07-12T14:21:12;30.10;52.60
59303;DHT22;45074;52.764;6.896;2022-07-12T14:23:37;29.70;52.10
59303;DHT22;45074;52.764;6.896;2022-07-12T14:26:03;29.00;50.20
59303;DHT22;45074;52.764;6.896;2022-07-12T14:28:30;29.40;49.60
59303;DHT22;45074;52.764;6.896;2022-07-12T14:33:22;28.90;49.60
59303;DHT22;45074;52.764;6.896;2022-07-12T14:35:48;28.90;49.40
59303;DHT22;45074;52.764;6.896;2022-07-12T14:38:14;29.30;50.10
59303;DHT22;45074;52.764;6.896;2022-07-12T14:40:42;28.80;48.90
59303;DHT22;45074;52.764;6.896;2022-07-12T14:43:08;29.80;50.60
59303;DHT22;45074;52.764;6.896;2022-07-12T14:45:34;29.70;50.70
59303;DHT22;45074;52.764;6.896;2022-07-12T14:47:59;29.50;43.40
59303;DHT22;45074;52.764;6.896;2022-07-12T14:50:25;29.50;50.30
59303;DHT22;45074;52.764;6.896;2022-07-12T14:52:51;29.20;49.30
59303;DHT22;45074;52.764;6.896;2022-07-12T14:55:16;29.60;50.40
59303;DHT22;45074;52.764;6.896;2022-07-12T14:57:42;29.00;51.90
59303;DHT22;45074;52.764;6.896;2022-07-12T15:00:08;29.00;50.50
59303;DHT22;45074;52.764;6.896;2022-07-12T15:02:36;29.30;51.60
59303;DHT22;45074;52.764;6.896;2022-07-12T15:05:02;28.80;42.80
